sensor_id;sensor_type;location;lat;lon;timestamp;pressure;altitude;pressure_sealevel;temperature;humidity
71565;BME280;59397;50.952;14.502;2022-07-25T00:08:52;973.31;;;11.52;96.27
71565;BME280;59397;50.952;14.502;2022-07-25T00:28:24;973.11;;;11.30;97.04
71565;BME280;59397;50.952;14.502;2022-07-25T00:47:55;973.02;;;11.39;96.70
71565;BME280;59397;50.952;14.502;2022-07-25T01:07:27;972.96;;;11.33;96.92
71565;BME280;59397;50.952;14.502;2022-07-25T01:26:58;972.78;;;11.09;97.59
71565;BME280;59397;50.952;14.502;2022-07-25T01:46:29;972.70;;;10.94;98.32
71565;BME280;59397;50.952;14.502;2022-07-25T02:06:00;972.47;;;10.90;98.25
71565;BME280;59397;50.952;14.502;2022-07-25T02:25:30;972.46;;;10.79;99.42
71565;BME280;59397;50.952;14.502;2022-07-25T02:45:02;972.36;;;10.76;98.65
71565;BME280;59397;50.952;14.502;2022-07-25T03:04:32;972.25;;;10.75;99.63
71565;BME280;59397;50.952;14.502;2022-07-25T03:24:03;972.28;;;10.85;99.81
71565;BME280;59397;50.952;14.502;2022-07-25T03:43:35;972.10;;;11.27;97.28
71565;BME280;59397;50.952;14.502;2022-07-25T04:03:06;971.97;;;11.49;97.17
71565;BME280;59397;50.952;14.502;2022-07-25T04:22:40;971.85;;;11.81;97.54
71565;BME280;59397;50.952;14.502;2022-07-25T04:42:14;971.65;;;12.67;95.55
71565;BME280;59397;50.952;14.502;2022-07-25T05:01:49;971.45;;;13.47;96.60
71565;BME280;59397;50.952;14.502;2022-07-25T05:21:17;971.25;;;15.54;89.19
71565;BME280;59397;50.952;14.502;2022-07-25T05:40:56;971.12;;;17.82;80.74
71565;BME280;59397;50.952;14.502;2022-07-25T06:00:31;970.98;;;19.27;72.61
71565;BME280;59397;50.952;14.502;2022-07-25T06:20:10;970.87;;;20.78;59.06
71565;BME280;59397;50.952;14.502;2022-07-25T06:39:43;970.66;;;21.52;56.49
71565;BME280;59397;50.952;14.502;2022-07-25T06:59:15;970.46;;;22.08;53.78
71565;BME280;59397;50.952;14.502;2022-07-25T07:18:49;970.34;;;22.86;52.37
71565;BME280;59397;50.952;14.502;2022-07-25T07:38:22;970.33;;;23.09;51.27
71565;BME280;59397;50.952;14.502;2022-07-25T07:57:55;970.20;;;23.99;51.23
71565;BME280;59397;50.952;14.502;2022-07-25T08:17:28;970.10;;;24.23;49.46
71565;BME280;59397;50.952;14.502;2022-07-25T08:37:01;970.12;;;24.43;46.55
71565;BME280;59397;50.952;14.502;2022-07-25T08:56:34;969.94;;;25.15;45.07
71565;BME280;59397;50.952;14.502;2022-07-25T09:16:08;969.85;;;25.73;45.06
71565;BME280;59397;50.952;14.502;2022-07-25T09:35:43;969.76;;;26.56;44.81
71565;BME280;59397;50.952;14.502;2022-07-25T09:55:16;969.68;;;26.97;43.80
71565;BME280;59397;50.952;14.502;2022-07-25T10:34:26;969.03;;;26.91;42.57
71565;BME280;59397;50.952;14.502;2022-07-25T10:53:56;968.86;;;27.72;41.93
71565;BME280;59397;50.952;14.502;2022-07-25T11:13:28;968.72;;;27.82;39.87
71565;BME280;59397;50.952;14.502;2022-07-25T11:33:00;968.39;;;27.87;38.94
71565;BME280;59397;50.952;14.502;2022-07-25T11:52:35;968.09;;;28.48;37.89
71565;BME280;59397;50.952;14.502;2022-07-25T12:12:08;967.85;;;28.63;36.41
71565;BME280;59397;50.952;14.502;2022-07-25T12:31:41;967.60;;;29.26;38.66
71565;BME280;59397;50.952;14.502;2022-07-25T12:51:12;967.33;;;28.94;36.70
71565;BME280;59397;50.952;14.502;2022-07-25T13:10:45;967.08;;;29.00;36.26
71565;BME280;59397;50.952;14.502;2022-07-25T13:30:18;966.98;;;29.09;35.42
71565;BME280;59397;50.952;14.502;2022-07-25T13:49:51;966.73;;;29.76;34.80
71565;BME280;59397;50.952;14.502;2022-07-25T14:09:19;966.47;;;28.33;36.74
71565;BME280;59397;50.952;14.502;2022-07-25T14:28:50;966.31;;;27.76;40.09
71565;BME280;59397;50.952;14.502;2022-07-25T14:48:20;966.11;;;28.12;38.32
71565;BME280;59397;50.952;14.502;2022-07-25T15:07:53;965.73;;;27.90;39.63
71565;BME280;59397;50.952;14.502;2022-07-25T15:27:24;965.60;;;27.87;40.40
71565;BME280;59397;50.952;14.502;2022-07-25T15:46:57;965.43;;;27.99;42.09
71565;BME280;59397;50.952;14.502;2022-07-25T16:06:28;965.34;;;27.58;41.62
71565;BME280;59397;50.952;14.502;2022-07-25T16:25:59;965.14;;;27.46;43.67
71565;BME280;59397;50.952;14.502;2022-07-25T16:45:31;964.78;;;27.19;40.61
71565;BME280;59397;50.952;14.502;2022-07-25T17:05:02;964.59;;;26.92;41.77
71565;BME280;59397;50.952;14.502;2022-07-25T17:24:32;964.38;;;26.53;42.48
71565;BME280;59397;50.952;14.502;2022-07-25T17:44:02;964.07;;;25.95;42.20
71565;BME280;59397;50.952;14.502;2022-07-25T18:03:32;964.07;;;25.53;43.11
71565;BME280;59397;50.952;14.502;2022-07-25T18:23:01;964.05;;;24.08;52.69
71565;BME280;59397;50.952;14.502;2022-07-25T18:42:28;964.03;;;23.22;57.94
71565;BME280;59397;50.952;14.502;2022-07-25T19:01:56;964.01;;;22.12;64.44
71565;BME280;59397;50.952;14.502;2022-07-25T19:21:26;963.84;;;21.57;65.50
71565;BME280;59397;50.952;14.502;2022-07-25T19:40:55;964.01;;;21.13;68.71
71565;BME280;59397;50.952;14.502;2022-07-25T20:00:23;964.36;;;20.90;71.58
71565;BME280;59397;50.952;14.502;2022-07-25T20:19:56;964.30;;;20.80;69.55
71565;BME280;59397;50.952;14.502;2022-07-25T20:39:25;964.58;;;20.08;74.33
71565;BME280;59397;50.952;14.502;2022-07-25T20:58:59;964.69;;;20.68;67.44
71565;BME280;59397;50.952;14.502;2022-07-25T21:18:27;964.62;;;19.59;77.62
71565;BME280;59397;50.952;14.502;2022-07-25T21:37:57;964.69;;;20.03;74.21
71565;BME280;59397;50.952;14.502;2022-07-25T21:57:32;964.44;;;20.69;69.72
71565;BME280;59397;50.952;14.502;2022-07-25T22:17:02;964.24;;;20.36;73.04
71565;BME280;59397;50.952;14.502;2022-07-25T22:36:31;964.54;;;19.29;81.32
71565;BME280;59397;50.952;14.502;2022-07-25T22:56:03;964.49;;;19.61;78.22
71565;BME280;59397;50.952;14.502;2022-07-25T23:15:36;964.75;;;19.04;82.64
71565;BME280;59397;50.952;14.502;2022-07-25T23:35:10;964.80;;;20.36;74.24
71565;BME280;59397;50.952;14.502;2022-07-25T23:54:43;965.41;;;21.23;73.57
